Latest Weather Observations for Mt Wellington

IDT60901

Issued at 8:21 pm EDT Monday 30 March 2015 (issued every 10 minutes, with the page automatically refreshed every 10 minutes)

About weather observations | Map of Hobart area stations | Latest observations for Hobart area | Other Formats
Station Details ID: 094087 Name: MOUNT WELLINGTON Lat: -42.90 Lon: 147.24 Height: 1260.47 m
Data from the previous 72 hours. | See also: Recent months at Mt Wellington
Date/Time
EDT
Tmp

°C
App
Tmp
°C
Dew
Point
°C
Rel
Hum
%
Delta-T

°C
Wind Press
QNH
hPa
Press
MSL
hPa
Rain
since
9 am
mm
Dir
 
Spd
km/h
Gust
km/h
Spd
kts
Gust
kts
30/08:00pm 5.8 0.3 4.1 89 0.8 W 22 28 12 15 - - 0.0
30/07:30pm 6.2 2.0 3.7 84 1.1 WNW 15 20 8 11 - - 0.0
30/07:00pm 6.9 1.8 4.0 82 1.3 WNW 20 28 11 15 - - 0.0
30/06:30pm 8.2 2.4 4.2 76 1.9 W 24 32 13 17 - - 0.0
30/06:00pm 8.8 3.4 4.6 75 2.0 WNW 22 28 12 15 - - 0.0
30/05:30pm 10.4 6.4 5.0 69 2.6 WNW 15 24 8 13 - - 0.0
30/05:00pm 11.1 7.2 5.2 67 2.9 WNW 15 22 8 12 - - 0.0
30/04:30pm 11.6 8.0 5.0 64 3.2 W 13 19 7 10 - - 0.0
30/04:00pm 11.8 8.1 6.1 68 2.9 W 15 24 8 13 - - 0.0
30/03:30pm 11.9 8.6 6.2 68 2.9 W 13 20 7 11 - - 0.0
30/03:00pm 11.9 7.8 6.4 69 2.8 SW 17 26 9 14 - - 0.0
30/02:30pm 11.7 6.7 6.6 71 2.6 W 22 30 12 16 - - 0.0
30/02:00pm 11.2 6.3 7.1 76 2.1 W 22 33 12 18 - - 0.0
30/01:30pm 10.3 4.5 6.1 75 2.1 WNW 26 39 14 21 - - 0.0
30/01:00pm 10.4 4.7 6.9 79 1.8 WNW 26 35 14 19 - - 0.0
30/12:30pm 9.3 5.2 6.4 82 1.4 WNW 17 24 9 13 - - 0.0
30/12:00pm 9.3 4.7 6.4 82 1.4 W 20 30 11 16 - - 0.0
30/11:30am 8.8 3.3 6.1 83 1.3 WNW 24 39 13 21 - - 0.0
30/11:00am 8.8 3.2 5.5 80 1.6 WNW 24 35 13 19 - - 0.0
30/10:48am 8.9 1.8 5.3 78 1.7 WNW 32 46 17 25 - - 0.0
30/10:30am 8.0 -1.2 5.3 83 1.3 W 43 59 23 32 - - 0.0
30/10:00am 7.1 -3.5 5.1 87 1.0 WSW 50 70 27 38 - - 0.0
30/09:52am 7.0 -4.0 5.0 87 1.0 WSW 52 70 28 38 - - 0.0
30/09:30am 6.8 -5.0 4.8 87 0.9 W 56 70 30 38 - - 0.0
30/09:00am 6.5 -5.4 4.3 86 1.0 W 56 69 30 37 - - 2.2
30/08:36am 5.7 -4.4 4.0 89 0.8 WSW 46 65 25 35 - - 2.2
30/08:30am 5.7 -4.4 3.7 87 0.9 WSW 46 61 25 33 - - 2.2
30/08:00am 5.3 -6.7 4.0 91 0.6 WSW 56 72 30 39 - - 2.2
30/07:36am 5.2 -6.8 3.5 89 0.8 W 56 74 30 40 - - 2.2
30/07:30am 5.3 -6.9 3.5 88 0.8 W 57 76 31 41 - - 2.2
30/07:03am 5.2 -6.5 3.4 88 0.8 W 54 74 29 40 - - 2.2
30/07:00am 5.2 -6.5 3.4 88 0.8 W 54 69 29 37 - - 2.2
30/06:51am 5.3 -5.6 3.3 87 0.9 W 50 69 27 37 - - 2.2
30/06:30am 5.3 -6.9 3.6 89 0.8 W 57 72 31 39 - - 2.2
30/06:02am 5.3 -5.6 3.3 87 0.9 W 50 69 27 37 - - 2.2
30/06:00am 5.2 -5.7 3.4 88 0.8 W 50 65 27 35 - - 2.2
30/05:30am 5.3 -4.4 3.8 90 0.7 W 44 61 24 33 - - 2.2
30/05:02am 5.1 -4.1 3.4 89 0.8 W 41 59 22 32 - - 2.2
30/05:00am 5.1 -3.7 3.6 90 0.7 W 39 54 21 29 - - 2.2
30/04:30am 4.9 -3.1 3.6 91 0.6 W 35 50 19 27 - - 2.2
30/04:00am 5.2 -3.6 3.5 89 0.8 W 39 56 21 30 - - 2.2
30/03:30am 5.2 -2.4 4.0 92 0.5 W 33 52 18 28 - - 2.2
30/03:00am 5.3 -4.6 4.6 95 0.3 WNW 46 67 25 36 - - 2.2
30/02:30am 5.5 -4.8 4.6 94 0.4 WNW 48 69 26 37 - - 2.2
30/02:00am 5.1 -5.4 3.4 89 0.8 WNW 48 59 26 32 - - 2.2
30/01:31am 5.0 -4.9 1.8 80 1.4 W 43 61 23 33 - - 2.2
30/01:30am 5.1 -4.8 1.8 79 1.4 W 43 57 23 31 - - 2.2
30/01:10am 4.7 -4.3 2.4 85 1.0 W 39 59 21 32 - - 2.2
30/01:00am 4.6 -4.8 2.6 87 0.9 W 41 50 22 27 - - 2.2
30/12:30am 4.8 -6.6 2.8 87 0.9 W 52 70 28 38 - - 2.2
30/12:17am 4.8 -7.3 3.1 89 0.8 W 56 74 30 40 - - 2.2
30/12:00am 5.2 -7.9 3.2 87 0.9 W 61 76 33 41 - - 2.2
 
Date/Time
EDT
Tmp

°C
App
Tmp
°C
Dew
Point
°C
Rel
Hum
%
Delta-T

°C
Wind Press
QNH
hPa
Press
MSL
hPa
Rain
since
9 am
mm
Dir
 
Spd
km/h
Gust
km/h
Spd
kts
Gust
kts
29/11:33pm 5.1 -8.3 3.3 88 0.8 W 63 83 34 45 - - 2.2
29/11:30pm 5.0 -8.4 3.2 88 0.8 W 63 76 34 41 - - 2.2
29/11:00pm 5.0 -8.4 3.3 89 0.8 W 63 89 34 48 - - 2.2
29/10:33pm 5.1 -6.6 3.6 90 0.7 W 54 85 29 46 - - 2.2
29/10:30pm 5.0 -6.7 3.5 90 0.7 W 54 69 29 37 - - 2.2
29/10:00pm 5.0 -5.1 3.7 91 0.6 WNW 46 72 25 39 - - 2.2
29/09:44pm 5.1 -4.0 3.8 91 0.6 WNW 41 61 22 33 - - 2.2
29/09:30pm 5.0 -3.4 3.8 92 0.5 WNW 37 52 20 28 - - 2.2
29/09:00pm 5.2 -3.6 3.5 89 0.8 WNW 39 56 21 30 - - 2.2
29/08:31pm 5.4 -3.8 3.4 87 0.9 WNW 41 59 22 32 - - 2.2
29/08:30pm 5.5 -4.1 3.3 86 1.0 WNW 43 59 23 32 - - 2.2
29/08:00pm 5.7 -4.1 3.2 84 1.1 WNW 44 69 24 37 - - 2.2
29/07:30pm 6.0 -4.5 3.8 86 1.0 WNW 48 67 26 36 - - 2.2
29/07:00pm 5.9 -3.3 5.3 96 0.3 W 43 63 23 34 - - 2.2
29/06:32pm 5.9 -1.8 5.3 96 0.3 W 35 59 19 32 - - 2.2
29/06:30pm 6.0 -1.7 5.4 96 0.3 W 35 46 19 25 - - 2.2
29/06:00pm 6.2 -3.0 5.3 94 0.4 W 43 65 23 35 - - 2.2
29/05:31pm 6.5 -2.6 5.8 95 0.3 W 43 63 23 34 - - 2.2
29/05:30pm 6.4 -2.9 5.7 95 0.3 W 44 63 24 34 - - 2.2
29/05:02pm 6.9 -3.2 5.7 92 0.6 W 48 69 26 37 - - 2.2
29/05:00pm 6.9 -3.6 5.5 91 0.7 W 50 69 27 37 - - 2.2
29/04:36pm 7.0 -3.9 5.6 91 0.7 W 52 70 28 38 - - 2.2
29/04:30pm 7.2 -3.3 5.7 90 0.7 W 50 67 27 36 - - 2.2
29/04:00pm 7.2 -3.9 6.3 94 0.4 W 54 78 29 42 - - 2.2
29/03:51pm 7.5 -2.3 6.9 96 0.3 W 48 67 26 36 - - 2.2
29/03:30pm 7.5 -2.3 7.1 97 0.2 W 48 63 26 34 - - 2.2
29/03:02pm 7.6 -1.4 7.3 98 0.2 W 44 63 24 34 - - 2.2
29/03:00pm 7.7 -1.6 7.4 98 0.2 W 46 63 25 34 - - 2.2
29/02:59pm 7.8 -1.1 7.5 98 0.2 W 44 63 24 34 - - 2.2
29/02:30pm 7.5 2.7 7.2 98 0.2 W 22 54 12 29 - - 2.2
29/02:00pm 7.6 4.1 7.3 98 0.2 W 15 22 8 12 - - 0.8
29/01:30pm 7.2 2.3 6.9 98 0.1 W 22 32 12 17 - - 0.2
29/01:00pm 6.8 -1.0 6.5 98 0.1 W 37 52 20 28 - - 0.2
29/12:30pm 6.5 -2.7 6.2 98 0.1 W 44 72 24 39 - - 0.2
29/12:00pm 6.2 -3.1 5.9 98 0.1 WNW 44 63 24 34 - - 0.2
29/11:30am 5.9 -4.6 5.6 98 0.1 WNW 50 74 27 40 - - 0.2
29/11:24am 6.0 -4.5 5.7 98 0.1 WNW 50 74 27 40 - - 0.2
29/11:00am 5.3 -4.6 5.0 98 0.1 WNW 46 61 25 33 - - 0.2
29/10:30am 4.9 -5.0 4.6 98 0.1 WNW 46 57 25 31 - - 0.0
29/10:00am 4.7 -3.9 4.4 98 0.1 NW 39 54 21 29 - - 0.0
29/09:30am 4.5 -2.5 4.2 98 0.1 NW 30 39 16 21 - - 0.0
29/09:00am 4.3 -3.1 3.9 97 0.2 NW 32 52 17 28 - - 0.0
29/08:33am 4.3 -4.5 3.7 96 0.3 NW 39 57 21 31 - - 0.0
29/08:30am 4.3 -4.9 3.7 96 0.3 NW 41 59 22 32 - - 0.0
29/08:00am 4.5 -6.7 3.8 95 0.3 WNW 52 76 28 41 - - 0.0
29/07:30am 4.3 -8.3 3.4 94 0.4 W 59 83 32 45 - - 0.0
29/07:00am 4.2 -8.5 3.2 93 0.4 W 59 83 32 45 - - 0.0
29/06:30am 4.0 -9.1 2.8 92 0.5 W 61 85 33 46 - - 0.0
29/06:00am 3.6 -10.3 2.7 94 0.4 W 65 91 35 49 - - 0.0
29/05:44am 3.6 -9.9 2.9 95 0.3 W 63 87 34 47 - - 0.0
29/05:30am 3.6 -8.6 2.6 93 0.4 W 56 69 30 37 - - 0.0
29/05:05am 3.7 -7.8 2.4 91 0.6 WNW 52 74 28 40 - - 0.0
29/05:00am 3.5 -7.6 2.3 92 0.5 WNW 50 67 27 36 - - 0.0
29/04:34am 4.2 -7.4 1.6 83 1.1 WNW 52 72 28 39 - - 0.0
29/04:30am 4.3 -7.7 1.7 83 1.1 W 54 72 29 39 - - 0.0
29/04:00am 4.2 -7.0 1.6 83 1.1 W 50 69 27 37 - - 0.0
29/03:50am 4.1 -7.2 1.1 81 1.3 W 50 70 27 38 - - 0.0
29/03:30am 4.5 -7.6 1.2 79 1.4 WNW 54 65 29 35 - - 0.0
29/03:00am 4.2 -6.0 0.9 79 1.4 WNW 44 63 24 34 - - 0.0
29/02:30am 5.2 -5.1 0.2 70 2.1 WNW 44 59 24 32 - - 0.0
29/02:22am 4.9 -4.0 0.5 73 1.8 WNW 37 57 20 31 - - 0.0
29/02:00am 5.4 -3.6 0.4 70 2.1 W 37 52 20 28 - - 0.0
29/01:32am 6.8 -1.4 -0.9 58 3.2 WNW 32 50 17 27 - - 0.0
29/01:30am 6.7 -1.7 -1.0 58 3.2 WNW 33 52 18 28 - - 0.0
29/01:09am 7.3 -1.1 -1.1 55 3.5 WNW 33 57 18 31 - - 0.0
29/01:00am 7.1 -1.1 -0.8 57 3.3 WNW 32 48 17 26 - - 0.0
29/12:46am 7.1 -2.8 -0.8 57 3.3 WNW 41 59 22 32 - - 0.0
29/12:30am 7.1 -1.3 -1.1 56 3.4 WNW 33 50 18 27 - - 0.0
29/12:00am 7.7 -1.8 -0.8 55 3.5 W 39 57 21 31 - - 0.0
 
Date/Time
EDT
Tmp

°C
App
Tmp
°C
Dew
Point
°C
Rel
Hum
%
Delta-T

°C
Wind Press
QNH
hPa
Press
MSL
hPa
Rain
since
9 am
mm
Dir
 
Spd
km/h
Gust
km/h
Spd
kts
Gust
kts
28/11:35pm 8.6 -1.4 -1.5 49 4.2 W 41 59 22 32 - - 0.0
28/11:30pm 8.3 -1.6 -1.2 51 4.0 WNW 41 56 22 30 - - 0.0
28/11:00pm 7.0 -1.8 1.3 67 2.5 WNW 37 46 20 25 - - 0.0
28/10:30pm 6.1 -1.3 2.0 75 1.8 WNW 30 37 16 20 - - 0.0
28/10:00pm 6.1 -1.9 1.8 74 1.9 WNW 33 46 18 25 - - 0.0
28/09:30pm 5.0 -1.6 2.2 82 1.2 WNW 26 33 14 18 - - 0.0
28/09:00pm 5.1 -1.8 2.8 85 1.0 NW 28 32 15 17 - - 0.0
28/08:30pm 5.2 -1.9 3.4 88 0.8 NW 30 33 16 18 - - 0.0
28/08:00pm 5.3 -0.5 4.3 93 0.5 NNW 24 28 13 15 - - 0.0
28/07:30pm 5.8 -0.8 4.1 89 0.8 NW 28 32 15 17 - - 0.0
28/07:00pm 6.1 1.1 4.4 89 0.8 NNW 20 30 11 16 - - 0.0
28/06:30pm 7.0 2.9 4.5 84 1.2 NW 15 20 8 11 - - 0.0
28/06:00pm 8.1 4.5 4.9 80 1.5 NNW 13 19 7 10 - - 0.0
28/05:30pm 9.2 6.7 5.0 75 2.0 NW 7 13 4 7 - - 0.0
28/05:00pm 9.0 6.0 4.2 72 2.3 NW 9 19 5 10 - - 0.0
28/04:30pm 9.2 6.3 4.8 74 2.1 NNW 9 15 5 8 - - 0.0
28/04:00pm 9.5 7.0 4.9 73 2.2 NW 7 15 4 8 - - 0.0
28/03:30pm 9.2 5.9 4.6 73 2.2 WNW 11 17 6 9 - - 0.0
28/03:00pm 8.3 5.9 5.4 82 1.4 NW 7 13 4 7 - - 0.0
28/02:30pm 8.0 5.8 5.1 82 1.4 N 6 15 3 8 - - 0.0
28/02:00pm 7.5 5.0 4.8 83 1.3 NW 7 15 4 8 - - 0.0
28/01:30pm 7.2 4.8 5.2 87 1.0 NW 7 15 4 8 - - 0.0
28/01:00pm 7.8 4.6 4.9 82 1.4 NW 11 20 6 11 - - 0.0
28/12:30pm 7.0 4.2 5.3 89 0.8 WNW 9 15 5 8 - - 0.0
28/12:00pm 6.3 2.4 5.3 93 0.5 W 15 24 8 13 - - 0.0
28/11:30am 5.8 2.2 4.9 94 0.4 W 13 19 7 10 - - 0.0
28/11:00am 6.0 3.6 5.1 94 0.4 WSW 7 13 4 7 - - 0.0
28/10:30am 5.2 1.5 4.6 96 0.3 WSW 13 20 7 11 - - 0.0
28/10:00am 3.4 -2.3 3.1 98 0.1 SW 22 28 12 15 - - 0.0
28/09:30am 3.3 -2.4 3.0 98 0.1 WSW 22 30 12 16 - - 0.0
28/09:00am 2.5 -4.5 2.2 98 0.1 WSW 28 37 15 20 - - 20.6
28/08:30am 2.3 -5.5 2.0 98 0.1 WSW 32 41 17 22 - - 20.6
28/08:00am 1.9 -7.2 1.6 98 0.1 WSW 39 48 21 26 - - 20.4
28/07:30am 1.8 -7.4 1.5 98 0.1 WSW 39 48 21 26 - - 20.4
28/07:00am 1.8 -6.0 1.5 98 0.1 WSW 32 44 17 24 - - 20.4
28/06:30am 1.7 -5.4 1.4 98 0.1 SW 28 37 15 20 - - 20.4
28/06:00am 1.6 -6.8 1.3 98 0.1 SW 35 43 19 23 - - 20.2
28/05:30am 1.5 -6.6 1.2 98 0.1 SW 33 39 18 21 - - 20.2
28/05:00am 1.8 -6.0 1.5 98 0.1 SW 32 43 17 23 - - 20.2
28/04:30am 2.2 -5.2 1.9 98 0.1 SW 30 37 16 20 - - 20.0
28/04:00am 2.5 -3.7 2.2 98 0.1 SW 24 32 13 17 - - 20.0
28/03:30am 2.4 -5.3 2.1 98 0.1 SW 32 39 17 21 - - 20.0
28/03:00am 2.6 -5.1 2.3 98 0.1 SW 32 39 17 21 - - 19.8
28/02:30am 2.6 -4.0 2.3 98 0.1 SW 26 33 14 18 - - 19.8
28/02:00am 2.8 -3.7 2.5 98 0.1 SW 26 33 14 18 - - 19.8
28/01:30am 2.7 -3.8 2.4 98 0.1 SW 26 35 14 19 - - 19.8
28/01:00am 2.8 -4.9 2.5 98 0.1 SW 32 44 17 24 - - 19.8
28/12:30am 3.0 -3.1 2.7 98 0.1 WSW 24 33 13 18 - - 19.6
28/12:00am 2.9 -3.2 2.6 98 0.1 WSW 24 32 13 17 - - 19.6
 
Date/Time
EDT
Tmp

°C
App
Tmp
°C
Dew
Point
°C
Rel
Hum
%
Delta-T

°C
Wind Press
QNH
hPa
Press
MSL
hPa
Rain
since
9 am
mm
Dir
 
Spd
km/h
Gust
km/h
Spd
kts
Gust
kts
27/11:30pm 3.3 -2.4 3.0 98 0.1 WSW 22 32 12 17 - - 19.6
27/11:00pm 3.6 -2.4 3.3 98 0.1 SW 24 35 13 19 - - 19.6
27/10:30pm 3.7 -2.7 3.4 98 0.1 SW 26 35 14 19 - - 19.4
27/10:00pm 3.7 -3.8 3.4 98 0.1 SW 32 43 17 23 - - 19.4
27/09:30pm 3.7 -3.8 3.4 98 0.1 SW 32 43 17 23 - - 19.2
27/09:00pm 3.7 -5.1 3.4 98 0.1 SW 39 50 21 27 - - 19.2
27/08:30pm 3.7 -6.1 3.4 98 0.1 SW 44 57 24 31 - - 19.2

Latest Capital City Observations: Canberra | Sydney | Melbourne | Brisbane | Adelaide | Perth | Hobart | Darwin

Other Formats:

Comma delimited format used in spreadsheet applications
http://www.bom.gov.au/fwo/IDT60901/IDT60901.95979.axf

JavaScript Object Notation format (JSON) in row-major order
http://www.bom.gov.au/fwo/IDT60901/IDT60901.95979.json